createdAt,value
2023-01-21T00:01:04.100Z,-1.91
2023-01-21T00:03:34.251Z,-1.97
2023-01-21T00:06:02.019Z,-1.98
2023-01-21T00:08:29.765Z,-1.93
2023-01-21T00:10:57.381Z,-1.91
2023-01-21T00:13:25.095Z,-1.98
2023-01-21T00:15:55.238Z,-2.03
2023-01-21T00:18:22.910Z,-1.96
2023-01-21T00:20:51.859Z,-1.93
2023-01-21T00:23:19.666Z,-1.94
2023-01-21T00:25:47.240Z,-1.96
2023-01-21T00:28:14.899Z,-1.94
2023-01-21T00:30:42.612Z,-1.90
2023-01-21T00:33:10.335Z,-1.90
2023-01-21T00:35:37.900Z,-1.88
2023-01-21T00:38:06.834Z,-1.84
2023-01-21T00:40:34.400Z,-1.92
2023-01-21T00:43:02.088Z,-1.98
2023-01-21T00:45:29.729Z,-2.02
2023-01-21T00:47:57.335Z,-2.13
2023-01-21T00:50:24.906Z,-2.10
2023-01-21T00:52:52.693Z,-2.07
2023-01-21T00:55:21.711Z,-2.07
2023-01-21T00:57:49.385Z,-2.08
2023-01-21T01:00:18.632Z,-2.07
2023-01-21T01:02:46.886Z,-2.05
2023-01-21T01:05:14.900Z,-2.03
2023-01-21T01:07:43.436Z,-2.08
2023-01-21T01:10:12.139Z,-2.14
2023-01-21T01:12:41.169Z,-2.13
2023-01-21T01:15:09.487Z,-2.17
2023-01-21T01:17:37.145Z,-2.13
2023-01-21T01:20:05.439Z,-2.10
2023-01-21T01:22:33.041Z,-2.11
2023-01-21T01:25:00.650Z,-2.20
2023-01-21T01:27:28.211Z,-2.21
2023-01-21T01:29:57.156Z,-2.22
2023-01-21T01:32:24.734Z,-2.21
2023-01-21T01:34:52.354Z,-2.30
2023-01-21T01:37:19.939Z,-2.31
2023-01-21T01:39:47.571Z,-2.36
2023-01-21T01:42:15.705Z,-2.40
2023-01-21T01:44:59.318Z,-2.36
2023-01-21T01:47:31.050Z,-2.34
2023-01-21T01:50:00.047Z,-2.27
2023-01-21T01:52:28.582Z,-2.21
2023-01-21T01:54:58.065Z,-2.25
2023-01-21T01:57:30.607Z,-2.28
2023-01-21T02:00:01.991Z,-2.34
2023-01-21T02:02:29.693Z,-2.40
2023-01-21T02:05:00.439Z,-2.41
2023-01-21T02:07:30.423Z,-2.50
2023-01-21T02:09:58.084Z,-2.45
2023-01-21T02:12:26.096Z,-2.43
2023-01-21T02:14:53.730Z,-2.38
2023-01-21T02:17:32.923Z,-2.44
2023-01-21T02:20:35.460Z,-2.58
2023-01-21T02:23:06.836Z,-2.54
2023-01-21T02:26:05.294Z,-2.48
2023-01-21T02:28:48.604Z,-2.53
2023-01-21T02:31:33.939Z,-2.61
2023-01-21T02:34:16.204Z,-2.58
2023-01-21T02:36:52.982Z,-2.63
2023-01-21T02:39:27.777Z,-2.62
2023-01-21T02:42:01.801Z,-2.61
2023-01-21T02:44:34.902Z,-2.59
2023-01-21T02:47:08.037Z,-2.56
2023-01-21T02:49:39.478Z,-2.59
2023-01-21T02:52:07.048Z,-2.61
2023-01-21T02:54:53.044Z,-2.56
2023-01-21T02:57:40.207Z,-2.62
2023-01-21T03:00:12.599Z,-2.64
2023-01-21T03:03:16.579Z,-2.63
2023-01-21T03:06:08.035Z,-2.61
2023-01-21T03:08:42.175Z,-2.70
2023-01-21T03:11:14.321Z,-2.81
2023-01-21T03:14:01.103Z,-2.85
2023-01-21T03:16:49.552Z,-2.91
2023-01-21T03:19:18.435Z,-2.98
2023-01-21T03:21:48.213Z,-2.98
2023-01-21T03:24:15.984Z,-2.90
2023-01-21T03:26:45.684Z,-2.89
2023-01-21T03:29:16.245Z,-2.88
2023-01-21T03:31:45.238Z,-2.90
2023-01-21T03:34:14.755Z,-2.90
2023-01-21T03:36:46.452Z,-2.89
2023-01-21T03:39:19.951Z,-3.07
2023-01-21T03:41:48.236Z,-3.04
2023-01-21T03:44:15.786Z,-3.08
2023-01-21T03:46:49.206Z,-3.13
2023-01-21T03:49:19.549Z,-3.14
2023-01-21T03:51:51.587Z,-3.13
2023-01-21T03:54:20.587Z,-3.14
2023-01-21T03:56:48.159Z,-3.09
2023-01-21T03:59:15.840Z,-3.16
2023-01-21T04:01:43.676Z,-3.12
2023-01-21T04:04:11.661Z,-3.16
2023-01-21T04:06:39.268Z,-3.14
2023-01-21T04:09:07.569Z,-3.11
2023-01-21T04:11:36.543Z,-3.01
2023-01-21T04:14:04.150Z,-2.98
2023-01-21T04:16:31.760Z,-3.12
2023-01-21T04:18:59.366Z,-3.19
2023-01-21T04:21:27.090Z,-3.27
2023-01-21T04:23:55.239Z,-3.24
2023-01-21T04:26:22.851Z,-3.26
2023-01-21T04:28:51.777Z,-3.25
2023-01-21T04:31:19.436Z,-3.23
2023-01-21T04:33:47.046Z,-3.20
2023-01-21T04:36:14.665Z,-3.26
2023-01-21T04:38:42.415Z,-3.21
2023-01-21T04:41:09.973Z,-3.20
2023-01-21T04:43:37.606Z,-3.17
2023-01-21T04:46:06.979Z,-3.18
2023-01-21T04:48:34.598Z,-3.21
2023-01-21T04:51:02.428Z,-3.25
2023-01-21T04:53:30.115Z,-3.26
2023-01-21T04:55:57.845Z,-3.25
2023-01-21T04:58:26.579Z,-3.25
2023-01-21T05:00:55.338Z,-3.31
2023-01-21T05:03:24.419Z,-3.20
2023-01-21T05:05:51.990Z,-3.13
2023-01-21T05:08:19.623Z,-3.12
2023-01-21T05:10:47.200Z,-3.11
2023-01-21T05:13:14.880Z,-3.09
2023-01-21T05:15:42.507Z,-3.06
2023-01-21T05:18:10.138Z,-3.05
2023-01-21T05:20:39.098Z,-3.02
2023-01-21T05:23:06.691Z,-3.10
2023-01-21T05:25:34.264Z,-3.07
2023-01-21T05:28:01.844Z,-3.14
2023-01-21T05:30:29.521Z,-3.18
2023-01-21T05:32:57.438Z,-3.23
2023-01-21T05:35:25.795Z,-3.14
2023-01-21T05:37:54.795Z,-3.19
2023-01-21T05:40:22.630Z,-3.31
2023-01-21T05:42:50.201Z,-3.36
2023-01-21T05:45:18.012Z,-3.40
2023-01-21T05:47:45.646Z,-3.42
2023-01-21T05:50:13.736Z,-3.52
2023-01-21T05:52:41.342Z,-3.53
2023-01-21T05:55:10.772Z,-3.56
2023-01-21T05:57:38.382Z,-3.59
2023-01-21T06:00:07.138Z,-3.51
2023-01-21T06:02:34.794Z,-3.47
2023-01-21T06:05:02.411Z,-3.51
2023-01-21T06:07:30.035Z,-3.48
2023-01-21T06:09:57.643Z,-3.58
2023-01-21T06:12:26.624Z,-3.57
2023-01-21T06:14:54.347Z,-3.47
2023-01-21T06:17:21.986Z,-3.46
2023-01-21T06:19:49.521Z,-3.57
2023-01-21T06:22:17.566Z,-3.69
2023-01-21T06:24:45.525Z,-3.62
2023-01-21T06:27:13.329Z,-3.54
2023-01-21T06:29:42.276Z,-3.57
2023-01-21T06:32:09.883Z,-3.49
2023-01-21T06:34:37.557Z,-3.42
2023-01-21T06:37:05.144Z,-3.46
2023-01-21T06:39:32.786Z,-3.46
2023-01-21T06:42:00.527Z,-3.45
2023-01-21T06:44:28.143Z,-3.53
2023-01-21T06:47:01.136Z,-3.55
2023-01-21T06:49:29.206Z,-3.55
2023-01-21T06:51:56.894Z,-3.60
2023-01-21T06:54:24.488Z,-3.60
2023-01-21T06:56:52.081Z,-3.56
2023-01-21T06:59:19.660Z,-3.50
2023-01-21T07:01:47.326Z,-3.53
2023-01-21T07:04:16.435Z,-3.55
2023-01-21T07:06:44.010Z,-3.67
2023-01-21T07:09:12.029Z,-3.69
2023-01-21T07:11:39.614Z,-3.67
2023-01-21T07:14:07.209Z,-3.70
2023-01-21T07:16:34.793Z,-3.69
2023-01-21T07:19:02.387Z,-3.82
2023-01-21T07:21:31.342Z,-3.86
2023-01-21T07:24:00.461Z,-3.80
2023-01-21T07:26:28.085Z,-3.81
2023-01-21T07:28:55.660Z,-3.81
2023-01-21T07:31:23.414Z,-3.72
2023-01-21T07:33:51.077Z,-3.58
2023-01-21T07:36:18.649Z,-3.64
2023-01-21T07:38:47.666Z,-3.56
2023-01-21T07:41:15.331Z,-3.50
2023-01-21T07:43:42.915Z,-3.55
2023-01-21T07:46:10.514Z,-3.57
2023-01-21T07:48:38.182Z,-3.51
2023-01-21T07:51:06.217Z,-3.56
2023-01-21T07:53:33.830Z,-3.57
2023-01-21T07:56:05.779Z,-3.68
2023-01-21T07:58:33.283Z,-3.65
2023-01-21T08:01:00.849Z,-3.56
2023-01-21T08:03:28.435Z,-3.47
2023-01-21T08:05:56.000Z,-3.40
2023-01-21T08:08:23.702Z,-3.42
2023-01-21T08:10:52.749Z,-3.45
2023-01-21T08:13:21.967Z,-3.39
2023-01-21T08:15:51.060Z,-3.50
2023-01-21T08:18:18.822Z,-3.55
2023-01-21T08:20:46.573Z,-3.45
2023-01-21T08:23:14.255Z,-3.47
2023-01-21T08:25:42.011Z,-3.48
2023-01-21T08:28:09.584Z,-3.46
2023-01-21T08:30:38.588Z,-3.39
2023-01-21T08:33:06.560Z,-3.35
2023-01-21T08:35:34.854Z,-3.40
2023-01-21T08:38:02.578Z,-3.59
2023-01-21T08:40:30.302Z,-3.68
2023-01-21T08:43:01.563Z,-3.58
2023-01-21T08:45:29.429Z,-3.48
2023-01-21T08:47:58.432Z,-3.55
2023-01-21T08:50:26.089Z,-3.44
2023-01-21T08:52:54.052Z,-3.54
2023-01-21T08:55:24.917Z,-3.68
2023-01-21T08:57:53.470Z,-3.64
2023-01-21T09:00:22.212Z,-3.65
2023-01-21T09:02:51.601Z,-3.54
2023-01-21T09:05:21.033Z,-3.46
2023-01-21T09:07:48.650Z,-3.31
2023-01-21T09:10:37.402Z,-3.20
2023-01-21T09:13:06.021Z,-3.24
2023-01-21T09:15:37.668Z,-3.25
2023-01-21T09:18:05.399Z,-3.19
2023-01-21T09:20:34.451Z,-3.20
2023-01-21T09:23:02.116Z,-3.17
2023-01-21T09:25:29.698Z,-3.45
2023-01-21T09:27:57.302Z,-3.39
2023-01-21T09:30:24.942Z,-3.47
2023-01-21T09:32:52.534Z,-3.37
2023-01-21T09:35:20.175Z,-3.32
2023-01-21T09:37:49.107Z,-3.31
2023-01-21T09:40:17.951Z,-3.30
2023-01-21T09:42:47.258Z,-3.19
2023-01-21T09:45:16.381Z,-3.14
2023-01-21T09:47:46.144Z,-3.04
2023-01-21T09:50:16.607Z,-3.03
2023-01-21T09:52:45.817Z,-3.11
2023-01-21T09:55:17.764Z,-2.95
2023-01-21T09:58:08.961Z,-2.77
2023-01-21T10:00:38.388Z,-2.81
2023-01-21T10:03:15.999Z,-2.80
2023-01-21T10:06:19.461Z,-2.71
2023-01-21T10:09:40.871Z,-2.79
2023-01-21T10:12:23.224Z,-2.81
2023-01-21T10:15:05.843Z,-2.69
2023-01-21T10:17:47.522Z,-2.53
2023-01-21T10:20:18.449Z,-2.67
2023-01-21T10:22:50.612Z,-2.56
2023-01-21T10:25:21.508Z,-2.41
2023-01-21T10:27:50.667Z,-2.55
2023-01-21T10:30:25.327Z,-2.68
2023-01-21T10:32:55.582Z,-2.74
2023-01-21T10:35:31.573Z,-2.64
2023-01-21T10:38:05.980Z,-2.69
2023-01-21T10:40:45.616Z,-2.63
2023-01-21T10:43:21.159Z,-2.57
2023-01-21T10:45:56.058Z,-2.65
2023-01-21T10:48:29.727Z,-2.62
2023-01-21T10:51:02.030Z,-2.40
2023-01-21T10:53:34.562Z,-2.35
2023-01-21T10:56:10.190Z,-2.45
2023-01-21T10:58:42.968Z,-2.33
2023-01-21T11:01:17.730Z,-2.29
2023-01-21T11:03:47.509Z,-2.62
2023-01-21T11:06:17.457Z,-2.34
2023-01-21T11:08:47.008Z,-2.27
2023-01-21T11:11:16.085Z,-2.32
2023-01-21T11:13:45.488Z,-2.45
2023-01-21T11:16:13.411Z,-2.54
2023-01-21T11:18:42.676Z,-2.50
2023-01-21T11:21:18.630Z,-2.48
2023-01-21T11:23:54.528Z,-2.62
2023-01-21T11:26:25.680Z,-2.63
2023-01-21T11:29:08.623Z,-2.54
2023-01-21T11:31:37.257Z,-2.55
2023-01-21T11:34:06.225Z,-2.50
2023-01-21T11:36:34.237Z,-2.59
2023-01-21T11:39:03.988Z,-2.63
2023-01-21T11:41:32.203Z,-2.58
2023-01-21T11:44:11.591Z,-2.49
2023-01-21T11:46:41.069Z,-2.39
2023-01-21T11:49:33.270Z,-2.50
2023-01-21T11:52:16.233Z,-2.35
2023-01-21T11:54:44.506Z,-2.27
2023-01-21T11:57:26.597Z,-2.29
2023-01-21T11:59:57.818Z,-2.33
2023-01-21T12:02:30.114Z,-2.45
2023-01-21T12:05:00.777Z,-2.65
2023-01-21T12:07:31.540Z,-2.65
2023-01-21T12:10:06.779Z,-2.66
2023-01-21T12:12:44.031Z,-2.56
2023-01-21T12:15:23.193Z,-2.54
2023-01-21T12:17:55.787Z,-2.67
2023-01-21T12:20:29.453Z,-2.54
2023-01-21T12:23:08.065Z,-2.46
2023-01-21T12:25:41.891Z,-2.40
2023-01-21T12:28:24.393Z,-2.37
2023-01-21T12:30:59.345Z,-2.27
2023-01-21T12:33:41.715Z,-2.27
2023-01-21T12:36:12.901Z,-2.28
2023-01-21T12:38:43.629Z,-2.32
2023-01-21T12:41:15.554Z,-2.29
2023-01-21T12:43:43.867Z,-2.18
2023-01-21T12:46:17.590Z,-2.14
2023-01-21T12:48:49.489Z,-2.13
2023-01-21T12:51:22.365Z,-2.16
2023-01-21T12:53:54.444Z,-2.24
2023-01-21T12:56:27.338Z,-2.34
2023-01-21T12:58:58.065Z,-2.46
2023-01-21T13:01:42.716Z,-2.31
2023-01-21T13:04:22.480Z,-2.41
2023-01-21T13:06:54.617Z,-2.55
2023-01-21T13:09:30.795Z,-2.33
2023-01-21T13:12:01.263Z,-2.20
2023-01-21T13:14:32.410Z,-2.34
2023-01-21T13:17:04.650Z,-2.38
2023-01-21T13:19:33.557Z,-2.17
2023-01-21T13:22:05.861Z,-2.13
2023-01-21T13:24:36.053Z,-2.04
2023-01-21T13:27:10.494Z,-2.11
2023-01-21T13:29:45.481Z,-2.15
2023-01-21T13:32:25.879Z,-2.13
2023-01-21T13:34:58.754Z,-2.06
2023-01-21T13:37:32.408Z,-2.04
2023-01-21T13:40:23.528Z,-2.05
2023-01-21T13:42:56.926Z,-2.08
2023-01-21T13:45:34.873Z,-2.35
2023-01-21T13:48:20.158Z,-2.31
2023-01-21T13:51:09.584Z,-2.25
2023-01-21T13:53:49.612Z,-2.21
2023-01-21T13:56:29.436Z,-2.11
2023-01-21T13:58:59.844Z,-2.23
2023-01-21T14:01:30.769Z,-2.15
2023-01-21T14:04:04.274Z,-2.18
2023-01-21T14:06:35.927Z,-2.26
2023-01-21T14:09:06.015Z,-2.24
2023-01-21T14:11:36.793Z,-2.34
2023-01-21T14:14:47.771Z,-2.35
2023-01-21T14:17:28.563Z,-2.35
2023-01-21T14:20:14.482Z,-2.41
2023-01-21T14:22:58.020Z,-2.44
2023-01-21T14:25:34.205Z,-2.40
2023-01-21T14:28:08.514Z,-2.39
2023-01-21T14:30:41.426Z,-2.41
2023-01-21T14:33:11.046Z,-2.50
2023-01-21T14:35:43.542Z,-2.40
2023-01-21T14:38:17.596Z,-2.39
2023-01-21T14:40:47.049Z,-2.45
2023-01-21T14:43:20.513Z,-2.30
2023-01-21T14:45:55.658Z,-2.36
2023-01-21T14:48:31.176Z,-2.31
2023-01-21T14:51:13.098Z,-2.22
2023-01-21T14:53:46.796Z,-2.21
2023-01-21T14:56:20.957Z,-2.17
2023-01-21T14:58:51.398Z,-2.09
2023-01-21T15:01:35.186Z,-2.09
2023-01-21T15:04:07.525Z,-2.05
2023-01-21T15:06:40.319Z,-2.16
2023-01-21T15:09:09.404Z,-2.25
2023-01-21T15:11:38.411Z,-2.38
2023-01-21T15:14:13.739Z,-2.39
2023-01-21T15:16:42.537Z,-2.50
2023-01-21T15:19:24.290Z,-2.47
2023-01-21T15:22:15.989Z,-2.32
2023-01-21T15:25:02.662Z,-2.34
2023-01-21T15:27:32.908Z,-2.36
2023-01-21T15:30:28.239Z,-2.32
2023-01-21T15:32:56.296Z,-2.32
2023-01-21T15:35:26.214Z,-2.47
2023-01-21T15:38:09.641Z,-2.36
2023-01-21T15:40:39.273Z,-2.43
2023-01-21T15:43:15.404Z,-2.43
2023-01-21T15:45:48.672Z,-2.36
2023-01-21T15:48:41.263Z,-2.47
2023-01-21T15:51:20.694Z,-2.41
2023-01-21T15:54:02.239Z,-2.48
2023-01-21T15:56:42.569Z,-2.42
2023-01-21T15:59:23.047Z,-2.34
2023-01-21T16:02:04.425Z,-2.36
2023-01-21T16:04:35.740Z,-2.44
2023-01-21T16:07:14.080Z,-2.50
2023-01-21T16:09:52.266Z,-2.54
2023-01-21T16:12:24.807Z,-2.48
2023-01-21T16:15:01.130Z,-2.40
2023-01-21T16:17:59.953Z,-2.48
2023-01-21T16:20:36.977Z,-2.53
2023-01-21T16:23:07.613Z,-2.47
2023-01-21T16:25:55.110Z,-2.34
2023-01-21T16:28:23.309Z,-2.32
2023-01-21T16:30:58.732Z,-2.36
2023-01-21T16:34:10.989Z,-2.38
2023-01-21T16:36:29.027Z,-2.46
2023-01-21T16:38:56.715Z,-2.48
2023-01-21T16:41:27.730Z,-2.68
2023-01-21T16:43:57.776Z,-2.67
2023-01-21T16:46:27.771Z,-2.59
2023-01-21T16:48:58.394Z,-2.57
2023-01-21T16:51:29.830Z,-2.54
2023-01-21T16:54:28.735Z,-2.56
2023-01-21T16:57:00.163Z,-2.65
2023-01-21T16:59:41.929Z,-2.82
2023-01-21T17:02:17.761Z,-2.73
2023-01-21T17:04:45.470Z,-2.78
2023-01-21T17:07:15.364Z,-2.75
2023-01-21T17:09:43.020Z,-2.72
2023-01-21T17:12:20.692Z,-2.84
2023-01-21T17:14:48.361Z,-2.85
2023-01-21T17:17:22.045Z,-2.72
2023-01-21T17:19:51.203Z,-2.73
2023-01-21T17:22:20.966Z,-2.79
2023-01-21T17:24:59.137Z,-2.76
2023-01-21T17:27:28.701Z,-2.75
2023-01-21T17:30:26.887Z,-2.82
2023-01-21T17:32:56.013Z,-2.77
2023-01-21T17:35:24.599Z,-2.73
2023-01-21T17:37:56.789Z,-2.64
2023-01-21T17:40:29.844Z,-2.70
2023-01-21T17:42:58.689Z,-2.83
2023-01-21T17:45:32.596Z,-2.89
2023-01-21T17:48:12.537Z,-2.77
2023-01-21T17:50:45.879Z,-2.80
2023-01-21T17:53:20.284Z,-2.74
2023-01-21T17:55:57.415Z,-2.75
2023-01-21T17:58:49.848Z,-2.79
2023-01-21T18:01:20.118Z,-2.83
2023-01-21T18:03:47.918Z,-2.87
2023-01-21T18:06:20.451Z,-2.78
2023-01-21T18:08:50.454Z,-2.84
2023-01-21T18:11:18.783Z,-2.83
2023-01-21T18:13:46.622Z,-2.73
2023-01-21T18:16:14.581Z,-2.69
2023-01-21T18:18:43.738Z,-2.63
2023-01-21T18:21:18.215Z,-2.76
2023-01-21T18:23:45.928Z,-2.80
2023-01-21T18:26:18.654Z,-2.73
2023-01-21T18:28:46.301Z,-2.82
2023-01-21T18:31:14.088Z,-2.83
2023-01-21T18:33:43.231Z,-2.90
2023-01-21T18:36:11.947Z,-2.93
2023-01-21T18:38:39.742Z,-2.96
2023-01-21T18:41:08.853Z,-3.09
2023-01-21T18:43:36.536Z,-3.02
2023-01-21T18:46:04.275Z,-2.99
2023-01-21T18:48:33.355Z,-2.89
2023-01-21T18:51:02.410Z,-3.07
2023-01-21T18:53:30.101Z,-2.98
2023-01-21T18:55:58.602Z,-3.01
2023-01-21T18:58:26.234Z,-2.92
2023-01-21T19:00:54.122Z,-2.93
2023-01-21T19:03:23.190Z,-2.94
2023-01-21T19:05:51.086Z,-3.00
2023-01-21T19:08:24.527Z,-3.10
2023-01-21T19:10:52.192Z,-3.01
2023-01-21T19:13:19.884Z,-3.01
2023-01-21T19:15:47.942Z,-3.11
2023-01-21T19:18:16.690Z,-3.14
2023-01-21T19:20:44.389Z,-2.99
2023-01-21T19:23:15.531Z,-2.98
2023-01-21T19:25:45.221Z,-2.98
2023-01-21T19:28:13.352Z,-2.96
2023-01-21T19:30:45.139Z,-3.05
2023-01-21T19:33:12.871Z,-2.95
2023-01-21T19:35:42.829Z,-3.09
2023-01-21T19:38:12.717Z,-3.12
2023-01-21T19:40:40.464Z,-3.15
2023-01-21T19:43:12.052Z,-3.03
2023-01-21T19:45:39.639Z,-3.09
2023-01-21T19:48:11.787Z,-3.08
2023-01-21T19:50:39.449Z,-3.08
2023-01-21T19:53:07.083Z,-2.98
2023-01-21T19:55:36.931Z,-2.90
2023-01-21T19:58:06.463Z,-2.93
2023-01-21T20:00:36.466Z,-3.02
2023-01-21T20:03:04.580Z,-2.89
2023-01-21T20:05:33.909Z,-2.97
2023-01-21T20:08:01.877Z,-3.03
2023-01-21T20:10:31.181Z,-2.95
2023-01-21T20:12:59.097Z,-2.91
2023-01-21T20:15:30.064Z,-2.94
2023-01-21T20:18:00.488Z,-2.91
2023-01-21T20:20:29.433Z,-2.84
2023-01-21T20:22:57.433Z,-2.84
2023-01-21T20:25:26.617Z,-2.92
2023-01-21T20:27:56.337Z,-2.86
2023-01-21T20:30:25.755Z,-2.88
2023-01-21T20:32:53.452Z,-2.86
2023-01-21T20:35:24.546Z,-2.87
2023-01-21T20:37:53.003Z,-2.78
2023-01-21T20:40:23.048Z,-2.78
2023-01-21T20:42:51.793Z,-2.76
2023-01-21T20:45:22.327Z,-2.75
2023-01-21T20:47:52.793Z,-2.77
2023-01-21T20:50:23.187Z,-2.80
2023-01-21T20:52:51.787Z,-2.78
2023-01-21T20:55:21.232Z,-2.78
2023-01-21T20:57:49.254Z,-2.84
2023-01-21T21:00:24.061Z,-2.92
2023-01-21T21:02:51.841Z,-2.91
2023-01-21T21:05:19.876Z,-2.90
2023-01-21T21:07:49.393Z,-2.86
2023-01-21T21:10:20.950Z,-2.83
2023-01-21T21:12:49.307Z,-2.87
2023-01-21T21:15:17.964Z,-2.83
2023-01-21T21:17:46.937Z,-2.81
2023-01-21T21:20:19.819Z,-2.78
2023-01-21T21:22:48.967Z,-2.79
2023-01-21T21:25:18.307Z,-2.80
2023-01-21T21:27:46.759Z,-2.72
2023-01-21T21:30:16.906Z,-2.73
2023-01-21T21:32:44.962Z,-2.71
2023-01-21T21:35:23.754Z,-2.70
2023-01-21T21:37:53.438Z,-2.72
2023-01-21T21:40:23.114Z,-2.71
2023-01-21T21:43:08.827Z,-2.69
2023-01-21T21:45:37.115Z,-2.69
2023-01-21T21:48:22.692Z,-2.69
2023-01-21T21:50:56.607Z,-2.69
2023-01-21T21:53:25.682Z,-2.78
2023-01-21T21:55:53.333Z,-2.80
2023-01-21T21:58:20.934Z,-2.81
2023-01-21T22:00:52.645Z,-2.77
2023-01-21T22:03:20.310Z,-2.79
2023-01-21T22:05:52.160Z,-2.72
2023-01-21T22:08:19.780Z,-2.68
2023-01-21T22:10:57.463Z,-2.63
2023-01-21T22:13:25.467Z,-2.60
2023-01-21T22:15:56.616Z,-2.55
2023-01-21T22:18:24.872Z,-2.55
2023-01-21T22:21:25.842Z,-2.51
2023-01-21T22:23:45.626Z,-2.48
2023-01-21T22:41:22.335Z,-2.82
2023-01-21T22:43:15.919Z,-2.56
2023-01-21T22:43:51.742Z,-2.79
2023-01-21T22:46:21.122Z,-2.73
2023-01-21T22:48:48.951Z,-2.68
2023-01-21T22:51:18.642Z,-2.63
2023-01-21T22:53:46.645Z,-2.61
2023-01-21T22:56:15.430Z,-2.68
2023-01-21T22:58:43.325Z,-2.65
2023-01-21T23:01:21.761Z,-2.70
2023-01-21T23:03:49.502Z,-2.67
2023-01-21T23:06:17.455Z,-2.67
2023-01-21T23:08:45.361Z,-2.67
2023-01-21T23:11:14.023Z,-2.62
2023-01-21T23:13:41.626Z,-2.66
2023-01-21T23:16:10.602Z,-2.70
2023-01-21T23:18:42.019Z,-2.71
2023-01-21T23:21:11.406Z,-2.76
2023-01-21T23:23:39.619Z,-2.82
2023-01-21T23:26:09.133Z,-2.78
2023-01-21T23:28:37.571Z,-2.75
2023-01-21T23:31:06.411Z,-2.72
2023-01-21T23:33:34.307Z,-2.65
2023-01-21T23:36:03.600Z,-2.63
2023-01-21T23:38:31.810Z,-2.60
2023-01-21T23:40:59.953Z,-2.56
2023-01-21T23:43:28.063Z,-2.52
2023-01-21T23:45:56.315Z,-2.46
2023-01-21T23:48:24.678Z,-2.39
2023-01-21T23:50:52.557Z,-2.36
2023-01-21T23:53:21.691Z,-2.34
2023-01-21T23:55:49.452Z,-2.34
2023-01-21T23:58:19.941Z,-2.33
